createdAt,value
2018-09-23T00:00:38.253Z,6.20
2018-09-23T00:05:30.855Z,3.93
2018-09-23T00:10:23.455Z,2.83
2018-09-23T00:15:16.057Z,3.20
2018-09-23T00:20:08.778Z,2.50
2018-09-23T00:25:01.511Z,7.13
2018-09-23T00:29:54.092Z,4.50
2018-09-23T00:34:46.713Z,3.73
2018-09-23T00:39:39.322Z,6.03
2018-09-23T00:44:31.926Z,2.70
2018-09-23T00:49:24.531Z,4.50
2018-09-23T00:54:17.086Z,4.83
2018-09-23T00:59:09.669Z,5.53
2018-09-23T01:04:02.280Z,4.70
2018-09-23T01:08:54.834Z,16.27
2018-09-23T01:13:47.507Z,25.13
2018-09-23T01:18:40.239Z,30.00
2018-09-23T01:23:32.828Z,29.10
2018-09-23T01:28:25.516Z,18.70
2018-09-23T01:33:18.071Z,11.10
2018-09-23T01:38:10.882Z,9.50
2018-09-23T01:43:03.496Z,7.63
2018-09-23T01:47:56.134Z,7.87
2018-09-23T01:52:48.746Z,5.43
2018-09-23T01:57:41.327Z,5.63
2018-09-23T02:02:33.969Z,6.43
2018-09-23T02:07:26.547Z,7.27
2018-09-23T02:12:19.113Z,7.57
2018-09-23T02:22:15.974Z,9.27
2018-09-23T02:27:08.653Z,7.37
2018-09-23T02:32:01.252Z,6.87
2018-09-23T02:36:53.856Z,6.60
2018-09-23T02:41:46.442Z,5.00
2018-09-23T02:46:39.027Z,4.20
2018-09-23T02:51:31.650Z,5.37
2018-09-23T02:56:24.277Z,6.73
2018-09-23T03:01:16.846Z,6.80
2018-09-23T03:06:09.407Z,4.77
2018-09-23T03:11:01.971Z,4.23
2018-09-23T03:15:54.519Z,5.17
2018-09-23T03:20:47.090Z,6.03
2018-09-23T03:25:39.704Z,5.37
2018-09-23T03:30:32.291Z,7.93
2018-09-23T03:35:24.911Z,8.00
2018-09-23T03:40:17.483Z,7.60
2018-09-23T03:45:10.143Z,9.63
2018-09-23T03:50:02.963Z,7.90
2018-09-23T03:54:55.511Z,7.73
2018-09-23T03:59:48.034Z,7.80
2018-09-23T04:04:40.591Z,9.33
2018-09-23T04:09:33.219Z,7.53
2018-09-23T04:14:25.823Z,8.83
2018-09-23T04:19:18.504Z,7.60
2018-09-23T04:24:11.220Z,9.53
2018-09-23T04:29:03.782Z,8.53
2018-09-23T04:33:56.379Z,9.70
2018-09-23T04:38:48.975Z,9.43
2018-09-23T04:43:41.568Z,10.73
2018-09-23T04:48:34.256Z,9.20
2018-09-23T04:53:26.843Z,8.83
2018-09-23T04:58:19.514Z,8.57
2018-09-23T05:03:12.095Z,10.47
2018-09-23T05:08:05.060Z,9.73
2018-09-23T05:12:57.786Z,12.57
2018-09-23T05:17:50.600Z,10.20
2018-09-23T05:22:43.192Z,8.57
2018-09-23T05:27:35.761Z,8.33
2018-09-23T05:32:28.760Z,9.60
2018-09-23T05:37:21.462Z,9.80
2018-09-23T05:42:14.046Z,8.73
2018-09-23T05:47:07.017Z,10.27
2018-09-23T05:51:59.599Z,9.47
2018-09-23T05:56:52.343Z,12.47
2018-09-23T06:01:44.858Z,9.83
2018-09-23T06:06:37.607Z,8.27
2018-09-23T06:11:30.184Z,11.17
2018-09-23T06:16:22.811Z,9.47
2018-09-23T06:21:15.483Z,10.00
2018-09-23T06:26:08.094Z,8.63
2018-09-23T06:31:00.756Z,8.80
2018-09-23T06:35:53.327Z,7.53
2018-09-23T06:40:46.146Z,9.70
2018-09-23T06:45:38.764Z,8.33
2018-09-23T06:50:31.332Z,12.67
2018-09-23T06:55:23.995Z,10.03
2018-09-23T07:00:16.528Z,9.00
2018-09-23T07:05:09.320Z,8.77
2018-09-23T07:10:01.868Z,7.23
2018-09-23T07:14:54.494Z,8.50
2018-09-23T07:19:47.136Z,10.83
2018-09-23T07:24:39.713Z,7.80
2018-09-23T07:29:32.444Z,7.70
2018-09-23T07:34:25.099Z,7.33
2018-09-23T07:39:17.740Z,8.03
2018-09-23T07:44:10.332Z,5.50
2018-09-23T07:49:02.935Z,9.40
2018-09-23T07:53:55.815Z,6.70
2018-09-23T07:58:48.552Z,10.80
2018-09-23T08:03:41.232Z,6.50
2018-09-23T08:08:34.166Z,6.63
2018-09-23T08:13:26.964Z,7.37
2018-09-23T08:18:19.791Z,7.23
2018-09-23T08:23:12.528Z,8.40
2018-09-23T08:28:05.111Z,9.37
2018-09-23T08:32:57.682Z,7.67
2018-09-23T08:37:50.247Z,8.57
2018-09-23T08:42:42.920Z,4.97
2018-09-23T08:47:35.578Z,6.47
2018-09-23T08:52:28.171Z,6.07
2018-09-23T08:57:20.768Z,6.13
2018-09-23T09:02:13.347Z,6.93
2018-09-23T09:07:06.137Z,6.00
2018-09-23T09:11:58.783Z,6.30
2018-09-23T09:16:51.400Z,7.70
2018-09-23T09:21:44.124Z,6.80
2018-09-23T09:26:36.860Z,5.73
2018-09-23T09:31:29.473Z,6.13
2018-09-23T09:36:22.080Z,5.57
2018-09-23T09:41:14.726Z,5.20
2018-09-23T09:46:07.368Z,5.93
2018-09-23T09:51:00.043Z,4.60
2018-09-23T09:55:52.664Z,5.37
2018-09-23T10:00:45.252Z,3.43
2018-09-23T10:05:37.809Z,5.10
2018-09-23T10:10:30.655Z,3.87
2018-09-23T10:15:23.182Z,2.80
2018-09-23T10:20:15.790Z,6.70
2018-09-23T10:25:08.564Z,4.43
2018-09-23T10:30:01.222Z,7.87
2018-09-23T10:34:54.464Z,3.47
2018-09-23T10:39:47.340Z,3.83
2018-09-23T10:44:39.939Z,5.47
2018-09-23T10:49:32.524Z,4.17
2018-09-23T10:54:25.097Z,4.80
2018-09-23T10:59:17.708Z,5.63
2018-09-23T11:04:10.525Z,3.40
2018-09-23T11:09:04.059Z,4.50
2018-09-23T11:13:56.719Z,4.13
2018-09-23T11:18:49.266Z,4.90
2018-09-23T11:23:42.077Z,4.47
2018-09-23T11:28:34.694Z,3.20
2018-09-23T11:33:27.329Z,3.50
2018-09-23T11:38:20.242Z,2.43
2018-09-23T11:43:12.860Z,4.70
2018-09-23T11:48:05.591Z,3.37
2018-09-23T11:52:58.255Z,4.10
2018-09-23T11:57:50.814Z,4.63
2018-09-23T12:02:43.588Z,4.13
2018-09-23T12:07:36.123Z,3.30
2018-09-23T12:12:28.833Z,2.63
2018-09-23T12:17:21.431Z,4.40
2018-09-23T12:22:14.110Z,2.67
2018-09-23T12:27:06.682Z,4.40
2018-09-23T12:31:59.278Z,5.30
2018-09-23T12:36:51.895Z,5.23
2018-09-23T12:41:44.514Z,4.90
2018-09-23T12:46:37.193Z,6.87
2018-09-23T12:51:29.867Z,4.10
2018-09-23T12:56:22.457Z,5.63
2018-09-23T13:01:14.957Z,5.37
2018-09-23T13:06:07.522Z,5.90
2018-09-23T13:11:00.090Z,4.17
2018-09-23T13:15:52.642Z,4.70
2018-09-23T13:20:45.407Z,5.50
2018-09-23T13:25:37.991Z,7.23
2018-09-23T13:30:30.735Z,6.23
2018-09-23T13:35:23.302Z,6.40
2018-09-23T13:40:16.039Z,7.50
2018-09-23T13:45:08.811Z,8.40
2018-09-23T13:50:01.363Z,6.97
2018-09-23T13:54:53.955Z,6.27
2018-09-23T13:59:46.604Z,8.87
2018-09-23T14:04:39.267Z,9.40
2018-09-23T14:09:31.836Z,7.20
2018-09-23T14:14:24.479Z,14.17
2018-09-23T14:19:17.258Z,6.67
2018-09-23T14:24:10.143Z,6.83
2018-09-23T14:29:02.778Z,10.43
2018-09-23T14:33:55.346Z,7.30
2018-09-23T14:38:47.956Z,9.33
2018-09-23T14:43:40.643Z,6.20
2018-09-23T14:48:33.276Z,8.57
2018-09-23T14:53:25.815Z,6.37
2018-09-23T14:58:18.406Z,8.83
2018-09-23T15:03:11.018Z,7.37
2018-09-23T15:08:03.620Z,7.67
2018-09-23T15:12:56.258Z,8.17
2018-09-23T15:17:49.028Z,8.17
2018-09-23T15:22:41.727Z,6.50
2018-09-23T15:27:34.584Z,6.03
2018-09-23T15:32:27.207Z,5.47
2018-09-23T15:37:20.078Z,4.03
2018-09-23T15:42:12.759Z,7.40
2018-09-23T15:47:05.756Z,9.87
2018-09-23T15:51:58.440Z,5.90
2018-09-23T15:56:51.206Z,6.83
2018-09-23T16:01:43.789Z,8.60
2018-09-23T16:06:36.470Z,6.83
2018-09-23T16:11:29.176Z,8.13
2018-09-23T16:16:21.751Z,5.40
2018-09-23T16:21:14.400Z,5.13
2018-09-23T16:26:07.015Z,5.43
2018-09-23T16:30:59.698Z,6.30
2018-09-23T16:35:52.316Z,7.27
2018-09-23T16:40:44.883Z,7.17
2018-09-23T16:45:37.503Z,3.57
2018-09-23T16:50:30.232Z,4.67
2018-09-23T16:55:22.879Z,4.93
2018-09-23T17:00:15.449Z,4.30
2018-09-23T17:05:07.961Z,21.40
2018-09-23T17:10:00.549Z,3.53
2018-09-23T17:14:54.242Z,3.97
2018-09-23T17:19:46.806Z,3.13
2018-09-23T17:24:40.393Z,4.00
2018-09-23T17:29:32.908Z,7.17
2018-09-23T17:34:25.527Z,4.40
2018-09-23T17:39:18.162Z,7.17
2018-09-23T17:44:10.743Z,3.60
2018-09-23T17:49:03.513Z,4.93
2018-09-23T17:53:56.063Z,4.27
2018-09-23T17:58:48.631Z,7.60
2018-09-23T18:03:41.219Z,7.00
2018-09-23T18:08:33.762Z,7.13
2018-09-23T18:13:26.417Z,5.20
2018-09-23T18:18:18.933Z,7.47
2018-09-23T18:23:11.569Z,5.23
2018-09-23T18:28:04.268Z,3.20
2018-09-23T18:32:56.834Z,6.40
2018-09-23T18:37:49.367Z,3.77
2018-09-23T18:42:42.078Z,4.20
2018-09-23T18:47:34.735Z,3.13
2018-09-23T18:52:27.363Z,4.10
2018-09-23T18:57:20.002Z,5.77
2018-09-23T19:02:12.786Z,3.60
2018-09-23T19:07:05.501Z,6.20
2018-09-23T19:11:58.129Z,5.87
2018-09-23T19:16:50.703Z,6.17
2018-09-23T19:21:43.344Z,6.03
2018-09-23T19:26:36.043Z,5.30
2018-09-23T19:31:28.663Z,5.27
2018-09-23T19:36:21.254Z,4.13
2018-09-23T19:41:15.012Z,6.87
2018-09-23T19:46:08.078Z,6.00
2018-09-23T19:51:00.602Z,9.73
2018-09-23T19:55:53.519Z,5.50
2018-09-23T20:00:46.101Z,7.13
2018-09-23T20:05:38.748Z,5.17
2018-09-23T20:10:31.308Z,7.00
2018-09-23T20:15:23.912Z,10.33
2018-09-23T20:20:16.516Z,7.33
2018-09-23T20:25:09.343Z,8.37
2018-09-23T20:30:01.966Z,10.27
2018-09-23T20:34:54.535Z,14.20
2018-09-23T20:39:47.533Z,11.73
2018-09-23T20:44:40.246Z,12.03
2018-09-23T20:49:32.894Z,11.67
2018-09-23T20:54:25.489Z,5.70
2018-09-23T20:59:18.241Z,5.40
2018-09-23T21:04:10.849Z,5.40
2018-09-23T21:09:05.857Z,2.77
2018-09-23T21:13:58.454Z,3.50
2018-09-23T21:18:51.127Z,5.70
2018-09-23T21:23:43.836Z,5.23
2018-09-23T21:28:36.630Z,3.70
2018-09-23T21:33:29.460Z,3.37
2018-09-23T21:38:22.243Z,4.67
2018-09-23T21:43:15.031Z,2.37
2018-09-23T21:48:07.796Z,5.53
2018-09-23T21:53:00.393Z,4.03
2018-09-23T21:57:53.053Z,6.27
2018-09-23T22:02:45.697Z,4.33
2018-09-23T22:07:38.292Z,5.60
2018-09-23T22:12:30.977Z,4.23
2018-09-23T22:17:23.567Z,6.00
2018-09-23T22:22:16.275Z,5.17
2018-09-23T22:27:08.879Z,7.03
2018-09-23T22:32:01.515Z,6.57
2018-09-23T22:36:54.264Z,8.27
2018-09-23T22:41:46.846Z,8.23
2018-09-23T22:46:39.430Z,8.33
2018-09-23T22:51:32.065Z,4.87
2018-09-23T22:56:24.664Z,4.93
2018-09-23T23:01:17.396Z,6.27
2018-09-23T23:06:09.974Z,5.37
2018-09-23T23:11:02.624Z,7.27
2018-09-23T23:15:55.262Z,7.63
2018-09-23T23:20:47.848Z,7.73
2018-09-23T23:25:40.456Z,10.20
2018-09-23T23:30:33.066Z,27.47
2018-09-23T23:35:25.648Z,27.13
2018-09-23T23:40:18.228Z,25.33
2018-09-23T23:45:10.796Z,24.30
2018-09-23T23:50:03.445Z,14.20
2018-09-23T23:54:56.061Z,5.97
2018-09-23T23:59:48.716Z,6.50
